Wetterdaten: Woche 16.05.16 - 22.05.16 (KW20)
Datum Zeit Temperatur Luftfeuchte Luftdruck Niederschlag Windrichtung Sonnenschein Solar Wind
16.05.2016 00:00 4,9 C 79 % 1020,7 hPa 0,0 l/m NW 0,00 h 0 W/m 7,1 km/h (2 Bft)
16.05.2016 01:00 4,8 C 84 % 1020,6 hPa 0,0 l/m W-SW 0,00 h 0 W/m 3,1 km/h (1 Bft)
16.05.2016 02:00 4,7 C 85 % 1020,3 hPa 0,0 l/m SW 0,00 h 0 W/m 4,9 km/h (1 Bft)
16.05.2016 03:00 4,6 C 85 % 1020,2 hPa 0,0 l/m SW 0,00 h 0 W/m 7,1 km/h (2 Bft)
16.05.2016 04:00 4,6 C 84 % 1020,0 hPa 0,0 l/m SW 0,00 h 0 W/m 6,9 km/h (2 Bft)
16.05.2016 05:00 4,9 C 81 % 1019,8 hPa 0,0 l/m SW 0,00 h 5 W/m 9,8 km/h (2 Bft)
16.05.2016 06:00 5,1 C 80 % 1019,7 hPa 0,0 l/m W-SW 0,00 h 18 W/m 12,1 km/h (2 Bft)
16.05.2016 07:00 5,5 C 79 % 1019,8 hPa 0,0 l/m W-SW 0,00 h 41 W/m 10,9 km/h (2 Bft)
16.05.2016 08:00 5,8 C 83 % 1019,8 hPa 0,0 l/m W-SW 0,00 h 69 W/m 7,2 km/h (2 Bft)
16.05.2016 09:00 6,4 C 84 % 1019,7 hPa 0,0 l/m SW 0,00 h 121 W/m 13,2 km/h (3 Bft)
16.05.2016 10:00 6,8 C 77 % 1019,7 hPa 0,0 l/m W-SW 0,00 h 109 W/m 16,1 km/h (3 Bft)
16.05.2016 11:00 6,6 C 83 % 1019,8 hPa 0,4 l/m W-SW 0,00 h 174 W/m 15,4 km/h (3 Bft)
16.05.2016 12:00 8,1 C 82 % 1019,5 hPa 0,0 l/m W 0,00 h 300 W/m 19,4 km/h (3 Bft)
16.05.2016 13:00 8,8 C 80 % 1019,0 hPa 0,0 l/m W-SW 0,00 h 303 W/m 22,0 km/h (4 Bft)
16.05.2016 14:00 8,3 C 86 % 1018,8 hPa 0,4 l/m W 0,00 h 169 W/m 17,2 km/h (3 Bft)
16.05.2016 15:00 9,2 C 86 % 1018,4 hPa 0,0 l/m W 0,08 h 296 W/m 14,4 km/h (3 Bft)
16.05.2016 16:00 9,2 C 84 % 1018,0 hPa 0,0 l/m W-SW 0,17 h 200 W/m 13,2 km/h (3 Bft)
16.05.2016 17:00 8,5 C 84 % 1018,0 hPa 0,2 l/m W-SW 0,00 h 69 W/m 14,6 km/h (3 Bft)
16.05.2016 18:00 7,0 C 91 % 1018,5 hPa 0,6 l/m W-NW 0,00 h 60 W/m 11,4 km/h (2 Bft)
16.05.2016 19:00 6,4 C 93 % 1018,9 hPa 0,2 l/m N-NO 0,00 h 24 W/m 4,0 km/h (1 Bft)
16.05.2016 20:00 6,1 C 95 % 1019,1 hPa 0,0 l/m N 0,00 h 20 W/m 1,3 km/h (1 Bft)
16.05.2016 21:00 6,1 C 95 % 1019,5 hPa 0,0 l/m W-NW 0,00 h 0 W/m 3,2 km/h (1 Bft)
16.05.2016 22:00 6,1 C 96 % 1019,7 hPa 0,2 l/m W-NW 0,00 h 0 W/m 1,9 km/h (1 Bft)
16.05.2016 23:00 5,6 C 97 % 1019,7 hPa 0,0 l/m W-NW 0,00 h 0 W/m 1,5 km/h (1 Bft)
17.05.2016 00:00 5,2 C 98 % 1019,7 hPa 0,0 l/m W-NW 0,00 h 0 W/m 4,1 km/h (1 Bft)
17.05.2016 01:00 5,3 C 98 % 1019,5 hPa 0,0 l/m N 0,00 h 0 W/m 2,0 km/h (1 Bft)
17.05.2016 02:00 5,6 C 98 % 1019,3 hPa 0,0 l/m W-SW 0,00 h 0 W/m 8,0 km/h (2 Bft)
17.05.2016 03:00 5,7 C 98 % 1019,0 hPa 0,0 l/m W-SW 0,00 h 0 W/m 8,3 km/h (2 Bft)
17.05.2016 04:00 5,8 C 98 % 1018,7 hPa 0,0 l/m W-SW 0,00 h 0 W/m 4,4 km/h (1 Bft)
17.05.2016 05:00 5,9 C 98 % 1018,5 hPa 0,0 l/m W-SW 0,00 h 0 W/m 4,0 km/h (1 Bft)
17.05.2016 06:00 6,1 C 99 % 1018,5 hPa 0,0 l/m W-SW 0,00 h 18 W/m 7,1 km/h (2 Bft)
17.05.2016 07:00 6,4 C 98 % 1018,6 hPa 0,0 l/m W-SW 0,00 h 54 W/m 5,8 km/h (1 Bft)
17.05.2016 08:00 7,0 C 97 % 1018,9 hPa 0,0 l/m W-SW 0,00 h 56 W/m 4,7 km/h (1 Bft)
17.05.2016 09:00 8,0 C 95 % 1018,9 hPa 0,0 l/m W-SW 0,08 h 239 W/m 6,0 km/h (2 Bft)
17.05.2016 10:00 9,2 C 86 % 1018,8 hPa 0,0 l/m W-SW 0,17 h 244 W/m 10,4 km/h (2 Bft)
17.05.2016 11:00 9,9 C 80 % 1018,7 hPa 0,0 l/m W 0,00 h 213 W/m 9,4 km/h (2 Bft)
17.05.2016 12:00 10,3 C 78 % 1018,7 hPa 0,0 l/m W-SW 0,00 h 190 W/m 14,0 km/h (3 Bft)
17.05.2016 13:00 11,0 C 74 % 1018,4 hPa 0,0 l/m W-SW 0,08 h 259 W/m 14,8 km/h (3 Bft)
17.05.2016 14:00 12,5 C 67 % 1017,8 hPa 0,0 l/m W-SW 0,17 h 297 W/m 17,4 km/h (3 Bft)
17.05.2016 15:00 12,9 C 63 % 1017,3 hPa 0,0 l/m NW 0,17 h 354 W/m 11,9 km/h (2 Bft)
17.05.2016 16:00 13,0 C 64 % 1017,1 hPa 0,0 l/m NW 0,25 h 283 W/m 8,0 km/h (2 Bft)
17.05.2016 17:00 13,6 C 61 % 1016,8 hPa 0,0 l/m W-NW 0,42 h 249 W/m 11,1 km/h (2 Bft)
17.05.2016 18:00 13,9 C 58 % 1016,4 hPa 0,0 l/m W-NW 0,75 h 311 W/m 10,5 km/h (2 Bft)
17.05.2016 19:00 12,6 C 65 % 1016,2 hPa 0,0 l/m W-NW 0,00 h 43 W/m 2,8 km/h (1 Bft)
17.05.2016 20:00 11,7 C 76 % 1016,3 hPa 0,0 l/m N 0,00 h 16 W/m 0,0 km/h (0 Bft)
17.05.2016 21:00 10,4 C 82 % 1016,4 hPa 0,0 l/m N 0,00 h 0 W/m 0,4 km/h (0 Bft)
17.05.2016 22:00 9,8 C 84 % 1016,6 hPa 0,0 l/m N 0,00 h 0 W/m 0,0 km/h (0 Bft)
17.05.2016 23:00 9,2 C 86 % 1016,5 hPa 0,0 l/m N 0,00 h 0 W/m 0,3 km/h (0 Bft)
18.05.2016 00:00 8,7 C 89 % 1016,2 hPa 0,0 l/m N 0,00 h 0 W/m 0,0 km/h (0 Bft)
18.05.2016 01:00 7,5 C 92 % 1015,8 hPa 0,0 l/m N 0,00 h 0 W/m 0,0 km/h (0 Bft)
18.05.2016 02:00 7,4 C 93 % 1015,3 hPa 0,0 l/m N 0,00 h 0 W/m 0,0 km/h (0 Bft)
18.05.2016 03:00 7,2 C 93 % 1014,9 hPa 0,0 l/m N 0,00 h 0 W/m 0,0 km/h (0 Bft)
18.05.2016 04:00 6,3 C 95 % 1014,5 hPa 0,0 l/m N 0,00 h 0 W/m 0,0 km/h (0 Bft)
18.05.2016 05:00 5,0 C 96 % 1014,1 hPa 0,0 l/m N 0,00 h 7 W/m 0,0 km/h (0 Bft)
18.05.2016 06:00 4,7 C 97 % 1014,1 hPa 0,0 l/m N 0,00 h 42 W/m 0,0 km/h (0 Bft)
18.05.2016 07:00 7,2 C 95 % 1014,1 hPa 0,0 l/m N 0,75 h 182 W/m 0,0 km/h (0 Bft)
18.05.2016 08:00 10,2 C 86 % 1013,9 hPa 0,0 l/m W-NW 1,00 h 355 W/m 4,1 km/h (1 Bft)
18.05.2016 09:00 12,6 C 76 % 1013,4 hPa 0,0 l/m W-NW 1,00 h 525 W/m 7,2 km/h (2 Bft)
18.05.2016 10:00 14,4 C 65 % 1013,0 hPa 0,0 l/m SW 1,00 h 692 W/m 8,6 km/h (2 Bft)
18.05.2016 11:00 16,1 C 52 % 1012,5 hPa 0,0 l/m SO 1,00 h 799 W/m 12,3 km/h (3 Bft)
18.05.2016 12:00 16,5 C 53 % 1011,9 hPa 0,0 l/m W-SW 0,58 h 658 W/m 11,4 km/h (2 Bft)
18.05.2016 13:00 17,6 C 51 % 1010,9 hPa 0,0 l/m SW 0,67 h 751 W/m 14,8 km/h (3 Bft)
18.05.2016 14:00 17,9 C 49 % 1010,1 hPa 0,0 l/m W 0,83 h 669 W/m 23,1 km/h (4 Bft)
18.05.2016 15:00 18,3 C 47 % 1009,4 hPa 0,0 l/m W-SW 1,00 h 614 W/m 21,0 km/h (4 Bft)
18.05.2016 16:00 18,4 C 47 % 1008,8 hPa 0,0 l/m W 0,83 h 500 W/m 20,1 km/h (4 Bft)
18.05.2016 17:00 18,4 C 46 % 1008,0 hPa 0,0 l/m W-NW 0,75 h 357 W/m 19,3 km/h (3 Bft)
18.05.2016 18:00 17,8 C 50 % 1007,5 hPa 0,0 l/m W-SW 0,08 h 164 W/m 10,9 km/h (2 Bft)
18.05.2016 19:00 17,4 C 54 % 1006,9 hPa 0,0 l/m SW 0,17 h 91 W/m 7,8 km/h (2 Bft)
18.05.2016 20:00 15,2 C 69 % 1006,5 hPa 0,0 l/m N 0,00 h 15 W/m 0,3 km/h (0 Bft)
18.05.2016 21:00 13,8 C 75 % 1006,5 hPa 0,0 l/m W 0,00 h 0 W/m 3,0 km/h (1 Bft)
18.05.2016 22:00 11,9 C 87 % 1006,8 hPa 0,4 l/m N 0,00 h 0 W/m 6,6 km/h (2 Bft)
18.05.2016 23:00 10,8 C 94 % 1006,3 hPa 0,0 l/m N 0,00 h 0 W/m 0,0 km/h (0 Bft)
19.05.2016 00:00 10,6 C 96 % 1006,0 hPa 0,4 l/m W-NW 0,00 h 0 W/m 2,0 km/h (1 Bft)
19.05.2016 01:00 10,4 C 96 % 1006,8 hPa 1,6 l/m W 0,00 h 0 W/m 15,3 km/h (3 Bft)
19.05.2016 02:00 10,4 C 97 % 1006,8 hPa 1,8 l/m SW 0,00 h 0 W/m 7,2 km/h (2 Bft)
19.05.2016 03:00 10,2 C 98 % 1006,3 hPa 1,0 l/m SW 0,00 h 0 W/m 14,6 km/h (3 Bft)
19.05.2016 04:00 9,7 C 98 % 1006,2 hPa 1,0 l/m SW 0,00 h 0 W/m 15,0 km/h (3 Bft)
19.05.2016 05:00 9,6 C 99 % 1006,1 hPa 0,6 l/m S-SW 0,00 h 0 W/m 11,0 km/h (2 Bft)
19.05.2016 06:00 9,5 C 99 % 1006,3 hPa 0,2 l/m SW 0,00 h 18 W/m 15,7 km/h (3 Bft)
19.05.2016 07:00 8,9 C 98 % 1007,2 hPa 0,4 l/m W-SW 0,00 h 27 W/m 19,4 km/h (3 Bft)
19.05.2016 08:00 8,2 C 97 % 1008,3 hPa 0,4 l/m W-SW 0,00 h 68 W/m 22,8 km/h (4 Bft)
19.05.2016 09:00 8,5 C 97 % 1008,8 hPa 0,6 l/m W-SW 0,00 h 93 W/m 14,1 km/h (3 Bft)
19.05.2016 10:00 8,6 C 97 % 1009,2 hPa 0,0 l/m W-SW 0,00 h 71 W/m 15,3 km/h (3 Bft)
19.05.2016 11:00 8,8 C 97 % 1010,0 hPa 0,4 l/m W-SW 0,00 h 128 W/m 13,8 km/h (3 Bft)
19.05.2016 12:00 9,6 C 96 % 1010,5 hPa 0,2 l/m W-SW 0,00 h 177 W/m 12,4 km/h (3 Bft)
19.05.2016 13:00 9,4 C 95 % 1010,7 hPa 1,0 l/m W 0,00 h 162 W/m 10,2 km/h (2 Bft)
19.05.2016 14:00 10,3 C 92 % 1011,1 hPa 0,0 l/m SW 0,00 h 208 W/m 13,0 km/h (3 Bft)
19.05.2016 15:00 9,6 C 92 % 1011,6 hPa 0,0 l/m S-SW 0,00 h 119 W/m 12,5 km/h (3 Bft)
19.05.2016 16:00 9,6 C 94 % 1012,4 hPa 0,2 l/m SW 0,17 h 188 W/m 13,8 km/h (3 Bft)
19.05.2016 17:00 10,5 C 92 % 1012,5 hPa 0,2 l/m W-SW 0,08 h 142 W/m 14,2 km/h (3 Bft)
19.05.2016 18:00 9,9 C 91 % 1013,3 hPa 0,0 l/m W-SW 0,00 h 49 W/m 5,4 km/h (1 Bft)
19.05.2016 19:00 9,9 C 94 % 1014,2 hPa 0,4 l/m W-SW 0,00 h 31 W/m 3,4 km/h (1 Bft)
19.05.2016 20:00 9,9 C 96 % 1015,2 hPa 0,0 l/m SW 0,00 h 21 W/m 12,6 km/h (3 Bft)
19.05.2016 21:00 9,4 C 96 % 1016,3 hPa 0,0 l/m S-SW 0,00 h 0 W/m 10,1 km/h (2 Bft)
19.05.2016 22:00 9,0 C 97 % 1017,0 hPa 0,0 l/m N 0,00 h 0 W/m 0,0 km/h (0 Bft)
19.05.2016 23:00 8,6 C 97 % 1017,5 hPa 0,0 l/m N 0,00 h 0 W/m 0,0 km/h (0 Bft)
20.05.2016 00:00 8,5 C 97 % 1018,2 hPa 0,0 l/m S-SW 0,00 h 0 W/m 1,9 km/h (1 Bft)
20.05.2016 01:00 8,3 C 98 % 1018,6 hPa 0,0 l/m S-SW 0,00 h 0 W/m 0,7 km/h (0 Bft)
20.05.2016 02:00 7,9 C 98 % 1018,7 hPa 0,0 l/m S-SW 0,00 h 0 W/m 0,8 km/h (0 Bft)
20.05.2016 03:00 6,8 C 98 % 1019,0 hPa 0,0 l/m N 0,00 h 0 W/m 0,0 km/h (0 Bft)
20.05.2016 04:00 5,8 C 98 % 1019,3 hPa 0,0 l/m N 0,00 h 0 W/m 0,0 km/h (0 Bft)
20.05.2016 05:00 5,1 C 99 % 1019,5 hPa 0,0 l/m N 0,08 h 9 W/m 0,0 km/h (0 Bft)
20.05.2016 06:00 5,4 C 99 % 1020,0 hPa 0,0 l/m N 0,00 h 49 W/m 0,0 km/h (0 Bft)
20.05.2016 07:00 6,8 C 99 % 1020,2 hPa 0,0 l/m N 0,08 h 102 W/m 0,0 km/h (0 Bft)
20.05.2016 08:00 8,8 C 97 % 1020,7 hPa 0,0 l/m W 0,83 h 324 W/m 6,8 km/h (2 Bft)
20.05.2016 09:00 11,0 C 88 % 1020,5 hPa 0,0 l/m W 0,92 h 605 W/m 4,3 km/h (1 Bft)
20.05.2016 10:00 12,7 C 79 % 1020,4 hPa 0,0 l/m W 0,92 h 689 W/m 9,0 km/h (2 Bft)
20.05.2016 11:00 13,9 C 74 % 1020,3 hPa 0,0 l/m W-NW 0,75 h 728 W/m 9,7 km/h (2 Bft)
20.05.2016 12:00 15,3 C 68 % 1020,2 hPa 0,0 l/m SW 1,00 h 904 W/m 14,1 km/h (3 Bft)
20.05.2016 13:00 15,6 C 67 % 1019,8 hPa 0,0 l/m SW 0,50 h 545 W/m 13,6 km/h (3 Bft)
20.05.2016 14:00 16,5 C 63 % 1019,4 hPa 0,0 l/m SW 0,58 h 550 W/m 12,9 km/h (3 Bft)
20.05.2016 15:00 17,2 C 60 % 1019,1 hPa 0,0 l/m SW 0,83 h 792 W/m 14,9 km/h (3 Bft)
20.05.2016 16:00 17,8 C 58 % 1018,7 hPa 0,0 l/m S-SW 0,83 h 713 W/m 15,0 km/h (3 Bft)
20.05.2016 17:00 18,0 C 55 % 1018,4 hPa 0,0 l/m S-SW 1,00 h 519 W/m 11,9 km/h (2 Bft)
20.05.2016 18:00 17,5 C 57 % 1018,4 hPa 0,0 l/m SW 1,00 h 357 W/m 11,3 km/h (2 Bft)
20.05.2016 19:00 16,6 C 62 % 1018,4 hPa 0,0 l/m SW 0,75 h 166 W/m 9,3 km/h (2 Bft)
20.05.2016 20:00 14,7 C 71 % 1018,5 hPa 0,0 l/m N 0,00 h 28 W/m 0,7 km/h (0 Bft)
20.05.2016 21:00 12,6 C 78 % 1018,9 hPa 0,0 l/m N 0,00 h 0 W/m 0,9 km/h (0 Bft)
20.05.2016 22:00 10,7 C 87 % 1019,1 hPa 0,0 l/m N 0,00 h 0 W/m 0,0 km/h (0 Bft)
20.05.2016 23:00 9,8 C 90 % 1019,1 hPa 0,0 l/m N 0,00 h 0 W/m 0,0 km/h (0 Bft)
21.05.2016 00:00 9,2 C 92 % 1019,1 hPa 0,0 l/m S 0,00 h 0 W/m 0,0 km/h (0 Bft)
21.05.2016 12:00 20,0 C 55 % 1016,4 hPa 0,0 l/m S-SO 1,83 h 866 W/m 10,6 km/h (2 Bft)
21.05.2016 13:00 21,7 C 53 % 1015,7 hPa 0,6 l/m SW 1,00 h 886 W/m 14,5 km/h (3 Bft)
21.05.2016 14:00 23,9 C 50 % 1015,3 hPa 0,0 l/m S-SW 1,00 h 854 W/m 9,2 km/h (2 Bft)
21.05.2016 15:00 23,5 C 45 % 1014,8 hPa 0,0 l/m SW 1,00 h 802 W/m 13,5 km/h (3 Bft)
21.05.2016 16:00 23,6 C 39 % 1014,6 hPa 0,0 l/m W-SW 1,00 h 644 W/m 11,6 km/h (2 Bft)
21.05.2016 17:00 23,4 C 38 % 1014,1 hPa 0,0 l/m W-SW 0,92 h 504 W/m 11,4 km/h (2 Bft)
21.05.2016 18:00 22,3 C 44 % 1013,8 hPa 0,0 l/m SW 0,67 h 280 W/m 10,1 km/h (2 Bft)
21.05.2016 19:00 21,3 C 48 % 1013,5 hPa 0,0 l/m W-SW 0,45 h 115 W/m 2,7 km/h (1 Bft)
21.05.2016 20:00 19,0 C 64 % 1013,5 hPa 0,0 l/m N 0,17 h 33 W/m 0,5 km/h (0 Bft)
21.05.2016 21:00 15,8 C 73 % 1013,4 hPa 0,0 l/m N 0,00 h 5 W/m 0,0 km/h (0 Bft)
21.05.2016 22:00 14,0 C 79 % 1013,6 hPa 0,0 l/m N 0,00 h 0 W/m 0,0 km/h (0 Bft)
21.05.2016 23:00 12,8 C 83 % 1013,1 hPa 0,0 l/m N 0,00 h 0 W/m 0,0 km/h (0 Bft)
22.05.2016 00:00 12,0 C 87 % 1012,7 hPa 0,0 l/m N 0,00 h 0 W/m 0,0 km/h (0 Bft)
22.05.2016 01:00 11,1 C 90 % 1012,1 hPa 0,0 l/m N 0,00 h 0 W/m 0,0 km/h (0 Bft)
22.05.2016 02:00 10,5 C 91 % 1011,6 hPa 0,0 l/m N 0,00 h 0 W/m 0,0 km/h (0 Bft)
22.05.2016 03:00 9,7 C 94 % 1010,9 hPa 0,0 l/m N 0,00 h 0 W/m 0,0 km/h (0 Bft)
22.05.2016 04:00 9,3 C 95 % 1010,5 hPa 0,0 l/m N 0,00 h 0 W/m 0,0 km/h (0 Bft)
22.05.2016 05:00 9,1 C 94 % 1010,4 hPa 0,0 l/m N 0,00 h 8 W/m 0,0 km/h (0 Bft)
22.05.2016 06:00 9,7 C 94 % 1010,1 hPa 0,0 l/m W-SW 0,00 h 50 W/m 1,3 km/h (1 Bft)
22.05.2016 07:00 13,1 C 85 % 1009,8 hPa 0,0 l/m N 1,00 h 203 W/m 1,1 km/h (0 Bft)
22.05.2016 08:00 16,1 C 72 % 1009,4 hPa 0,0 l/m N 1,00 h 365 W/m 0,9 km/h (0 Bft)
22.05.2016 09:00 19,1 C 65 % 1009,2 hPa 0,0 l/m W-SW 1,00 h 537 W/m 3,2 km/h (1 Bft)
22.05.2016 10:00 21,6 C 55 % 1008,7 hPa 0,0 l/m W-SW 1,00 h 689 W/m 6,4 km/h (2 Bft)
22.05.2016 11:00 23,1 C 50 % 1008,2 hPa 0,0 l/m N-NO 1,00 h 817 W/m 8,6 km/h (2 Bft)
22.05.2016 12:00 25,2 C 44 % 1007,2 hPa 0,0 l/m SO 1,00 h 876 W/m 8,6 km/h (2 Bft)
22.05.2016 13:00 26,9 C 39 % 1006,3 hPa 0,0 l/m SW 1,00 h 912 W/m 18,9 km/h (3 Bft)
22.05.2016 14:00 27,1 C 38 % 1005,7 hPa 0,0 l/m SW 0,75 h 657 W/m 17,8 km/h (3 Bft)
22.05.2016 15:00 27,0 C 37 % 1005,2 hPa 0,0 l/m SW 0,58 h 485 W/m 15,3 km/h (3 Bft)
22.05.2016 16:00 26,3 C 39 % 1004,7 hPa 0,0 l/m SW 0,58 h 402 W/m 15,4 km/h (3 Bft)
22.05.2016 17:00 26,3 C 39 % 1004,4 hPa 0,0 l/m SW 0,83 h 411 W/m 18,9 km/h (3 Bft)
22.05.2016 18:00 24,7 C 44 % 1004,1 hPa 0,0 l/m W-SW 0,00 h 144 W/m 11,7 km/h (2 Bft)
22.05.2016 19:00 23,7 C 50 % 1004,3 hPa 0,0 l/m W 0,33 h 120 W/m 4,5 km/h (1 Bft)
22.05.2016 20:00 20,4 C 57 % 1005,4 hPa 0,0 l/m N-NW 0,00 h 25 W/m 19,7 km/h (3 Bft)
22.05.2016 21:00 18,4 C 58 % 1006,5 hPa 0,0 l/m NW 0,00 h 0 W/m 22,9 km/h (4 Bft)
22.05.2016 22:00 16,3 C 63 % 1008,0 hPa 0,0 l/m N-NW 0,00 h 0 W/m 14,6 km/h (3 Bft)
22.05.2016 23:00 14,4 C 68 % 1009,0 hPa 0,0 l/m N-NW 0,00 h 0 W/m 11,5 km/h (2 Bft)
Min-Datum _ 18.05.16 21.05.16 22.05.16 - - - - 16.05.16
_ Min-Zeit 06:05 16:40 18:35 - - - - 01:15
Minimum _ 4,4 C 35 % 1004,0 hPa - - - - 0,0 km/h (0 Bft)
Max-Datum _ 22.05.16 17.05.16 20.05.16 19.05.16 - 21.05.16 18.05.16 18.05.16
_ Max-Zeit 13:45 06:00 08:30 02:35 - 12:05 13:40 13:55
Maximum _ 27,6 C 99 % 1020,9 hPa 1,8 l/m - 1,00 h 1069 W/m 33,8 km/h
W-SW (5 Bft)
Durchschnitt _ 12,0 C 79 % 1014,5 hPa #13,4 l/m W-SW #40:27 h 303 W/m 8,1 km/h (2 Bft)